sensor_id;sensor_type;location;lat;lon;timestamp;P1;durP1;ratioP1;P2;durP2;ratioP2
55762;SDS011;42162;51.958;5.426;2023-08-24T00:00:22;6.28;;;2.53;;
55762;SDS011;42162;51.958;5.426;2023-08-24T00:02:49;10.23;;;2.80;;
55762;SDS011;42162;51.958;5.426;2023-08-24T00:05:16;5.63;;;2.90;;
55762;SDS011;42162;51.958;5.426;2023-08-24T00:07:44;7.10;;;2.53;;
55762;SDS011;42162;51.958;5.426;2023-08-24T00:10:10;5.00;;;2.40;;
55762;SDS011;42162;51.958;5.426;2023-08-24T00:12:37;3.83;;;2.53;;
55762;SDS011;42162;51.958;5.426;2023-08-24T00:15:07;5.03;;;2.63;;
55762;SDS011;42162;51.958;5.426;2023-08-24T00:17:35;5.28;;;2.60;;
55762;SDS011;42162;51.958;5.426;2023-08-24T00:20:04;7.82;;;2.65;;
55762;SDS011;42162;51.958;5.426;2023-08-24T00:22:38;6.18;;;2.60;;
55762;SDS011;42162;51.958;5.426;2023-08-24T00:25:06;5.22;;;2.90;;
55762;SDS011;42162;51.958;5.426;2023-08-24T00:27:34;6.50;;;2.35;;
55762;SDS011;42162;51.958;5.426;2023-08-24T00:30:02;3.80;;;2.10;;
55762;SDS011;42162;51.958;5.426;2023-08-24T00:32:34;8.40;;;3.00;;
55762;SDS011;42162;51.958;5.426;2023-08-24T00:35:02;5.60;;;2.15;;
55762;SDS011;42162;51.958;5.426;2023-08-24T00:37:31;3.63;;;2.25;;
55762;SDS011;42162;51.958;5.426;2023-08-24T00:40:02;4.25;;;2.45;;
55762;SDS011;42162;51.958;5.426;2023-08-24T00:45:07;5.38;;;2.67;;
55762;SDS011;42162;51.958;5.426;2023-08-24T00:47:39;5.47;;;2.28;;
55762;SDS011;42162;51.958;5.426;2023-08-24T00:50:08;10.85;;;3.75;;
55762;SDS011;42162;51.958;5.426;2023-08-24T00:52:37;7.05;;;2.42;;
55762;SDS011;42162;51.958;5.426;2023-08-24T00:55:06;4.85;;;2.80;;
55762;SDS011;42162;51.958;5.426;2023-08-24T00:57:35;4.55;;;2.28;;
55762;SDS011;42162;51.958;5.426;2023-08-24T01:00:04;5.55;;;2.90;;
55762;SDS011;42162;51.958;5.426;2023-08-24T01:02:33;6.57;;;2.78;;
55762;SDS011;42162;51.958;5.426;2023-08-24T01:05:01;5.38;;;2.80;;
55762;SDS011;42162;51.958;5.426;2023-08-24T01:07:28;4.82;;;2.60;;
55762;SDS011;42162;51.958;5.426;2023-08-24T01:09:55;5.72;;;2.67;;
55762;SDS011;42162;51.958;5.426;2023-08-24T01:12:26;6.45;;;2.50;;
55762;SDS011;42162;51.958;5.426;2023-08-24T01:15:12;7.38;;;2.95;;
55762;SDS011;42162;51.958;5.426;2023-08-24T01:17:44;6.10;;;2.88;;
55762;SDS011;42162;51.958;5.426;2023-08-24T01:20:15;7.47;;;2.28;;
55762;SDS011;42162;51.958;5.426;2023-08-24T01:22:46;4.50;;;2.00;;
55762;SDS011;42162;51.958;5.426;2023-08-24T01:27:56;7.72;;;2.40;;
55762;SDS011;42162;51.958;5.426;2023-08-24T01:30:25;6.47;;;2.65;;
55762;SDS011;42162;51.958;5.426;2023-08-24T01:32:52;5.50;;;2.78;;
55762;SDS011;42162;51.958;5.426;2023-08-24T01:35:20;5.25;;;2.55;;
55762;SDS011;42162;51.958;5.426;2023-08-24T01:37:47;4.20;;;2.70;;
55762;SDS011;42162;51.958;5.426;2023-08-24T01:40:20;3.90;;;2.20;;
55762;SDS011;42162;51.958;5.426;2023-08-24T01:42:59;7.53;;;2.80;;
55762;SDS011;42162;51.958;5.426;2023-08-24T01:48:00;5.82;;;2.60;;
55762;SDS011;42162;51.958;5.426;2023-08-24T01:50:30;5.97;;;2.67;;
55762;SDS011;42162;51.958;5.426;2023-08-24T01:52:57;7.13;;;2.97;;
55762;SDS011;42162;51.958;5.426;2023-08-24T01:55:25;6.60;;;2.30;;
55762;SDS011;42162;51.958;5.426;2023-08-24T01:57:52;6.82;;;2.53;;
55762;SDS011;42162;51.958;5.426;2023-08-24T02:00:22;6.55;;;2.50;;
55762;SDS011;42162;51.958;5.426;2023-08-24T02:02:49;7.38;;;2.88;;
55762;SDS011;42162;51.958;5.426;2023-08-24T02:05:16;8.32;;;3.08;;
55762;SDS011;42162;51.958;5.426;2023-08-24T02:07:48;5.15;;;2.65;;
55762;SDS011;42162;51.958;5.426;2023-08-24T02:10:16;4.50;;;2.70;;
55762;SDS011;42162;51.958;5.426;2023-08-24T02:12:43;4.13;;;2.88;;
55762;SDS011;42162;51.958;5.426;2023-08-24T02:15:10;5.05;;;3.08;;
55762;SDS011;42162;51.958;5.426;2023-08-24T02:17:37;4.45;;;2.50;;
55762;SDS011;42162;51.958;5.426;2023-08-24T02:20:04;7.82;;;2.72;;
55762;SDS011;42162;51.958;5.426;2023-08-24T02:22:34;7.43;;;3.13;;
55762;SDS011;42162;51.958;5.426;2023-08-24T02:25:01;7.10;;;3.10;;
55762;SDS011;42162;51.958;5.426;2023-08-24T02:27:30;5.38;;;3.53;;
55762;SDS011;42162;51.958;5.426;2023-08-24T02:29:57;5.22;;;3.40;;
55762;SDS011;42162;51.958;5.426;2023-08-24T02:32:25;4.75;;;3.30;;
55762;SDS011;42162;51.958;5.426;2023-08-24T02:34:52;7.00;;;3.75;;
55762;SDS011;42162;51.958;5.426;2023-08-24T02:37:19;9.13;;;3.95;;
55762;SDS011;42162;51.958;5.426;2023-08-24T02:39:45;14.75;;;4.05;;
55762;SDS011;42162;51.958;5.426;2023-08-24T02:42:13;5.43;;;3.45;;
55762;SDS011;42162;51.958;5.426;2023-08-24T02:44:39;6.30;;;3.38;;
55762;SDS011;42162;51.958;5.426;2023-08-24T02:47:07;5.65;;;3.70;;
55762;SDS011;42162;51.958;5.426;2023-08-24T02:49:34;11.38;;;4.90;;
55762;SDS011;42162;51.958;5.426;2023-08-24T02:52:02;11.57;;;5.00;;
55762;SDS011;42162;51.958;5.426;2023-08-24T02:54:29;10.25;;;5.43;;
55762;SDS011;42162;51.958;5.426;2023-08-24T02:56:56;7.13;;;4.68;;
55762;SDS011;42162;51.958;5.426;2023-08-24T02:59:23;9.02;;;4.43;;
55762;SDS011;42162;51.958;5.426;2023-08-24T03:01:50;11.48;;;5.30;;
55762;SDS011;42162;51.958;5.426;2023-08-24T03:04:17;7.78;;;5.07;;
55762;SDS011;42162;51.958;5.426;2023-08-24T03:06:44;6.38;;;4.60;;
55762;SDS011;42162;51.958;5.426;2023-08-24T03:09:11;6.72;;;4.82;;
55762;SDS011;42162;51.958;5.426;2023-08-24T03:11:42;10.23;;;5.88;;
55762;SDS011;42162;51.958;5.426;2023-08-24T03:14:10;11.57;;;5.50;;
55762;SDS011;42162;51.958;5.426;2023-08-24T03:16:37;8.88;;;5.43;;
55762;SDS011;42162;51.958;5.426;2023-08-24T03:19:05;9.75;;;6.63;;
55762;SDS011;42162;51.958;5.426;2023-08-24T03:21:33;13.48;;;7.57;;
55762;SDS011;42162;51.958;5.426;2023-08-24T03:24:00;8.55;;;6.85;;
55762;SDS011;42162;51.958;5.426;2023-08-24T03:26:27;8.98;;;6.90;;
55762;SDS011;42162;51.958;5.426;2023-08-24T03:28:54;17.65;;;7.15;;
55762;SDS011;42162;51.958;5.426;2023-08-24T03:31:22;12.52;;;7.05;;
55762;SDS011;42162;51.958;5.426;2023-08-24T03:33:50;15.65;;;7.65;;
55762;SDS011;42162;51.958;5.426;2023-08-24T03:36:17;8.48;;;6.68;;
55762;SDS011;42162;51.958;5.426;2023-08-24T03:38:45;10.55;;;6.32;;
55762;SDS011;42162;51.958;5.426;2023-08-24T03:41:12;13.90;;;6.90;;
55762;SDS011;42162;51.958;5.426;2023-08-24T03:43:39;13.75;;;7.68;;
55762;SDS011;42162;51.958;5.426;2023-08-24T03:46:06;10.57;;;6.15;;
55762;SDS011;42162;51.958;5.426;2023-08-24T03:48:33;8.15;;;6.20;;
55762;SDS011;42162;51.958;5.426;2023-08-24T03:51:00;9.40;;;6.63;;
55762;SDS011;42162;51.958;5.426;2023-08-24T03:53:28;8.93;;;6.10;;
55762;SDS011;42162;51.958;5.426;2023-08-24T03:55:55;9.18;;;5.40;;
55762;SDS011;42162;51.958;5.426;2023-08-24T03:58:22;7.57;;;5.57;;
55762;SDS011;42162;51.958;5.426;2023-08-24T04:00:51;9.77;;;6.03;;
55762;SDS011;42162;51.958;5.426;2023-08-24T04:03:18;9.15;;;5.60;;
55762;SDS011;42162;51.958;5.426;2023-08-24T04:05:45;10.15;;;6.20;;
55762;SDS011;42162;51.958;5.426;2023-08-24T04:08:13;7.70;;;5.53;;
55762;SDS011;42162;51.958;5.426;2023-08-24T04:10:39;7.43;;;5.43;;
55762;SDS011;42162;51.958;5.426;2023-08-24T04:13:06;13.65;;;6.07;;
55762;SDS011;42162;51.958;5.426;2023-08-24T04:15:35;8.82;;;6.50;;
55762;SDS011;42162;51.958;5.426;2023-08-24T04:18:02;10.45;;;6.47;;
55762;SDS011;42162;51.958;5.426;2023-08-24T04:20:30;9.15;;;6.15;;
55762;SDS011;42162;51.958;5.426;2023-08-24T04:22:57;6.75;;;5.07;;
55762;SDS011;42162;51.958;5.426;2023-08-24T04:25:24;8.45;;;5.80;;
55762;SDS011;42162;51.958;5.426;2023-08-24T04:27:51;7.93;;;6.32;;
55762;SDS011;42162;51.958;5.426;2023-08-24T04:30:18;7.50;;;5.78;;
55762;SDS011;42162;51.958;5.426;2023-08-24T04:32:46;10.70;;;6.13;;
55762;SDS011;42162;51.958;5.426;2023-08-24T04:35:13;10.95;;;5.80;;
55762;SDS011;42162;51.958;5.426;2023-08-24T04:37:40;7.97;;;5.85;;
55762;SDS011;42162;51.958;5.426;2023-08-24T04:40:07;8.13;;;6.38;;
55762;SDS011;42162;51.958;5.426;2023-08-24T04:42:34;9.55;;;6.78;;
55762;SDS011;42162;51.958;5.426;2023-08-24T04:45:01;8.13;;;6.68;;
55762;SDS011;42162;51.958;5.426;2023-08-24T04:47:28;8.80;;;6.03;;
55762;SDS011;42162;51.958;5.426;2023-08-24T04:49:56;10.30;;;6.45;;
55762;SDS011;42162;51.958;5.426;2023-08-24T04:52:23;11.95;;;7.05;;
55762;SDS011;42162;51.958;5.426;2023-08-24T04:54:50;10.77;;;6.85;;
55762;SDS011;42162;51.958;5.426;2023-08-24T04:57:17;10.18;;;5.47;;
55762;SDS011;42162;51.958;5.426;2023-08-24T04:59:45;11.55;;;7.05;;
55762;SDS011;42162;51.958;5.426;2023-08-24T05:02:12;8.38;;;6.05;;
55762;SDS011;42162;51.958;5.426;2023-08-24T05:04:39;7.57;;;6.70;;
55762;SDS011;42162;51.958;5.426;2023-08-24T05:07:06;10.48;;;7.40;;
55762;SDS011;42162;51.958;5.426;2023-08-24T05:09:33;11.73;;;6.65;;
55762;SDS011;42162;51.958;5.426;2023-08-24T05:12:00;9.93;;;6.90;;
55762;SDS011;42162;51.958;5.426;2023-08-24T05:14:27;9.00;;;6.43;;
55762;SDS011;42162;51.958;5.426;2023-08-24T05:16:54;10.95;;;7.18;;
55762;SDS011;42162;51.958;5.426;2023-08-24T05:19:21;10.77;;;6.75;;
55762;SDS011;42162;51.958;5.426;2023-08-24T05:21:48;6.70;;;6.00;;
55762;SDS011;42162;51.958;5.426;2023-08-24T05:24:15;9.25;;;6.18;;
55762;SDS011;42162;51.958;5.426;2023-08-24T05:26:42;11.10;;;6.35;;
55762;SDS011;42162;51.958;5.426;2023-08-24T05:29:09;9.18;;;6.00;;
55762;SDS011;42162;51.958;5.426;2023-08-24T05:31:36;7.72;;;5.97;;
55762;SDS011;42162;51.958;5.426;2023-08-24T05:34:03;10.98;;;6.80;;
55762;SDS011;42162;51.958;5.426;2023-08-24T05:36:30;15.50;;;6.40;;
55762;SDS011;42162;51.958;5.426;2023-08-24T05:38:57;8.90;;;5.78;;
55762;SDS011;42162;51.958;5.426;2023-08-24T05:41:32;7.95;;;6.10;;
55762;SDS011;42162;51.958;5.426;2023-08-24T05:43:59;8.23;;;6.32;;
55762;SDS011;42162;51.958;5.426;2023-08-24T05:46:26;8.52;;;5.25;;
55762;SDS011;42162;51.958;5.426;2023-08-24T05:48:55;8.52;;;6.30;;
55762;SDS011;42162;51.958;5.426;2023-08-24T05:51:24;12.52;;;6.18;;
55762;SDS011;42162;51.958;5.426;2023-08-24T05:53:52;11.02;;;6.05;;
55762;SDS011;42162;51.958;5.426;2023-08-24T05:56:22;10.55;;;5.75;;
55762;SDS011;42162;51.958;5.426;2023-08-24T05:58:49;10.73;;;6.18;;
55762;SDS011;42162;51.958;5.426;2023-08-24T06:01:16;12.80;;;6.00;;
55762;SDS011;42162;51.958;5.426;2023-08-24T06:03:44;9.80;;;5.85;;
55762;SDS011;42162;51.958;5.426;2023-08-24T06:06:11;12.65;;;6.50;;
55762;SDS011;42162;51.958;5.426;2023-08-24T06:08:38;14.50;;;7.70;;
55762;SDS011;42162;51.958;5.426;2023-08-24T06:11:05;12.45;;;6.20;;
55762;SDS011;42162;51.958;5.426;2023-08-24T06:13:33;11.52;;;6.28;;
55762;SDS011;42162;51.958;5.426;2023-08-24T06:16:00;8.75;;;6.25;;
55762;SDS011;42162;51.958;5.426;2023-08-24T06:18:28;8.18;;;6.45;;
55762;SDS011;42162;51.958;5.426;2023-08-24T06:20:55;10.13;;;6.28;;
55762;SDS011;42162;51.958;5.426;2023-08-24T06:23:22;16.00;;;7.38;;
55762;SDS011;42162;51.958;5.426;2023-08-24T06:25:49;9.10;;;5.57;;
55762;SDS011;42162;51.958;5.426;2023-08-24T06:28:16;9.45;;;6.75;;
55762;SDS011;42162;51.958;5.426;2023-08-24T06:30:43;11.32;;;6.10;;
55762;SDS011;42162;51.958;5.426;2023-08-24T06:33:11;9.20;;;6.07;;
55762;SDS011;42162;51.958;5.426;2023-08-24T06:35:38;7.95;;;6.20;;
55762;SDS011;42162;51.958;5.426;2023-08-24T06:38:05;9.25;;;6.25;;
55762;SDS011;42162;51.958;5.426;2023-08-24T06:40:32;8.82;;;6.82;;
55762;SDS011;42162;51.958;5.426;2023-08-24T06:42:59;11.55;;;7.03;;
55762;SDS011;42162;51.958;5.426;2023-08-24T06:45:26;10.18;;;6.82;;
55762;SDS011;42162;51.958;5.426;2023-08-24T06:47:53;14.35;;;7.15;;
55762;SDS011;42162;51.958;5.426;2023-08-24T06:50:21;13.70;;;7.25;;
55762;SDS011;42162;51.958;5.426;2023-08-24T06:52:48;11.90;;;6.53;;
55762;SDS011;42162;51.958;5.426;2023-08-24T06:55:15;10.38;;;6.88;;
55762;SDS011;42162;51.958;5.426;2023-08-24T06:57:47;11.07;;;6.60;;
55762;SDS011;42162;51.958;5.426;2023-08-24T07:00:15;11.38;;;6.38;;
55762;SDS011;42162;51.958;5.426;2023-08-24T07:02:42;14.27;;;7.65;;
55762;SDS011;42162;51.958;5.426;2023-08-24T07:05:10;10.55;;;6.95;;
55762;SDS011;42162;51.958;5.426;2023-08-24T07:07:39;11.27;;;7.07;;
55762;SDS011;42162;51.958;5.426;2023-08-24T07:10:07;10.70;;;7.10;;
55762;SDS011;42162;51.958;5.426;2023-08-24T07:12:34;12.60;;;7.53;;
55762;SDS011;42162;51.958;5.426;2023-08-24T07:15:01;14.82;;;7.70;;
55762;SDS011;42162;51.958;5.426;2023-08-24T07:17:29;10.57;;;6.80;;
55762;SDS011;42162;51.958;5.426;2023-08-24T07:19:57;8.80;;;6.90;;
55762;SDS011;42162;51.958;5.426;2023-08-24T07:22:24;13.13;;;8.18;;
55762;SDS011;42162;51.958;5.426;2023-08-24T07:24:53;12.18;;;7.50;;
55762;SDS011;42162;51.958;5.426;2023-08-24T07:27:20;9.80;;;7.10;;
55762;SDS011;42162;51.958;5.426;2023-08-24T07:29:47;12.35;;;6.95;;
55762;SDS011;42162;51.958;5.426;2023-08-24T07:32:15;9.68;;;6.30;;
55762;SDS011;42162;51.958;5.426;2023-08-24T07:34:42;13.80;;;7.00;;
55762;SDS011;42162;51.958;5.426;2023-08-24T07:37:09;10.43;;;7.40;;
55762;SDS011;42162;51.958;5.426;2023-08-24T07:39:36;11.63;;;6.35;;
55762;SDS011;42162;51.958;5.426;2023-08-24T07:42:04;11.60;;;6.45;;
55762;SDS011;42162;51.958;5.426;2023-08-24T07:44:31;7.78;;;6.97;;
55762;SDS011;42162;51.958;5.426;2023-08-24T07:46:58;11.82;;;5.25;;
55762;SDS011;42162;51.958;5.426;2023-08-24T07:49:25;11.77;;;6.90;;
55762;SDS011;42162;51.958;5.426;2023-08-24T07:51:52;10.07;;;5.88;;
55762;SDS011;42162;51.958;5.426;2023-08-24T07:54:19;7.80;;;6.47;;
55762;SDS011;42162;51.958;5.426;2023-08-24T07:56:46;17.45;;;7.20;;
55762;SDS011;42162;51.958;5.426;2023-08-24T07:59:14;9.57;;;6.05;;
55762;SDS011;42162;51.958;5.426;2023-08-24T08:01:41;10.63;;;6.00;;
55762;SDS011;42162;51.958;5.426;2023-08-24T08:04:08;11.55;;;6.72;;
55762;SDS011;42162;51.958;5.426;2023-08-24T08:06:34;9.85;;;7.15;;
55762;SDS011;42162;51.958;5.426;2023-08-24T08:09:01;12.65;;;6.30;;
55762;SDS011;42162;51.958;5.426;2023-08-24T08:11:29;11.98;;;6.93;;
55762;SDS011;42162;51.958;5.426;2023-08-24T08:13:57;9.70;;;6.60;;
55762;SDS011;42162;51.958;5.426;2023-08-24T08:16:24;8.40;;;5.85;;
55762;SDS011;42162;51.958;5.426;2023-08-24T08:18:51;10.00;;;6.53;;
55762;SDS011;42162;51.958;5.426;2023-08-24T08:21:18;9.30;;;7.32;;
55762;SDS011;42162;51.958;5.426;2023-08-24T08:23:48;13.10;;;7.63;;
55762;SDS011;42162;51.958;5.426;2023-08-24T08:26:15;14.30;;;7.10;;
55762;SDS011;42162;51.958;5.426;2023-08-24T08:28:43;10.55;;;7.55;;
55762;SDS011;42162;51.958;5.426;2023-08-24T08:31:11;8.73;;;7.07;;
55762;SDS011;42162;51.958;5.426;2023-08-24T08:33:38;9.18;;;7.03;;
55762;SDS011;42162;51.958;5.426;2023-08-24T08:36:05;10.70;;;8.07;;
55762;SDS011;42162;51.958;5.426;2023-08-24T08:38:32;11.80;;;8.27;;
55762;SDS011;42162;51.958;5.426;2023-08-24T08:41:03;14.77;;;7.60;;
55762;SDS011;42162;51.958;5.426;2023-08-24T08:43:31;14.68;;;8.30;;
55762;SDS011;42162;51.958;5.426;2023-08-24T08:45:58;11.30;;;7.45;;
55762;SDS011;42162;51.958;5.426;2023-08-24T08:48:27;13.40;;;7.90;;
55762;SDS011;42162;51.958;5.426;2023-08-24T08:50:57;15.75;;;8.45;;
55762;SDS011;42162;51.958;5.426;2023-08-24T08:53:25;13.95;;;7.50;;
55762;SDS011;42162;51.958;5.426;2023-08-24T08:55:52;16.30;;;8.32;;
55762;SDS011;42162;51.958;5.426;2023-08-24T08:58:21;12.73;;;8.40;;
55762;SDS011;42162;51.958;5.426;2023-08-24T09:00:49;17.25;;;8.32;;
55762;SDS011;42162;51.958;5.426;2023-08-24T09:03:18;13.23;;;8.52;;
55762;SDS011;42162;51.958;5.426;2023-08-24T09:05:46;9.13;;;8.07;;
55762;SDS011;42162;51.958;5.426;2023-08-24T09:08:17;12.38;;;7.05;;
55762;SDS011;42162;51.958;5.426;2023-08-24T09:10:45;12.07;;;7.70;;
55762;SDS011;42162;51.958;5.426;2023-08-24T09:13:12;9.85;;;7.53;;
55762;SDS011;42162;51.958;5.426;2023-08-24T09:15:39;10.80;;;7.15;;
55762;SDS011;42162;51.958;5.426;2023-08-24T09:18:06;13.38;;;7.90;;
55762;SDS011;42162;51.958;5.426;2023-08-24T09:20:35;13.23;;;7.22;;
55762;SDS011;42162;51.958;5.426;2023-08-24T09:23:02;11.45;;;8.77;;
55762;SDS011;42162;51.958;5.426;2023-08-24T09:25:30;13.07;;;8.23;;
55762;SDS011;42162;51.958;5.426;2023-08-24T09:27:58;11.07;;;7.32;;
55762;SDS011;42162;51.958;5.426;2023-08-24T09:30:31;12.35;;;8.23;;
55762;SDS011;42162;51.958;5.426;2023-08-24T09:33:09;11.05;;;8.77;;
55762;SDS011;42162;51.958;5.426;2023-08-24T09:35:37;9.68;;;6.95;;
55762;SDS011;42162;51.958;5.426;2023-08-24T09:38:20;16.88;;;8.55;;
55762;SDS011;42162;51.958;5.426;2023-08-24T09:40:50;11.30;;;6.95;;
55762;SDS011;42162;51.958;5.426;2023-08-24T09:43:18;11.65;;;7.70;;
55762;SDS011;42162;51.958;5.426;2023-08-24T09:48:18;10.00;;;6.75;;
55762;SDS011;42162;51.958;5.426;2023-08-24T09:50:46;11.55;;;6.15;;
55762;SDS011;42162;51.958;5.426;2023-08-24T09:53:18;7.00;;;5.38;;
55762;SDS011;42162;51.958;5.426;2023-08-24T09:55:53;12.77;;;6.85;;
55762;SDS011;42162;51.958;5.426;2023-08-24T09:58:27;11.55;;;7.82;;
55762;SDS011;42162;51.958;5.426;2023-08-24T10:00:55;9.77;;;6.97;;
55762;SDS011;42162;51.958;5.426;2023-08-24T10:03:25;7.38;;;5.82;;
55762;SDS011;42162;51.958;5.426;2023-08-24T10:05:54;12.13;;;7.50;;
55762;SDS011;42162;51.958;5.426;2023-08-24T10:08:34;11.20;;;7.47;;
55762;SDS011;42162;51.958;5.426;2023-08-24T10:11:04;8.38;;;5.95;;
55762;SDS011;42162;51.958;5.426;2023-08-24T10:13:50;12.80;;;8.13;;
55762;SDS011;42162;51.958;5.426;2023-08-24T10:16:32;10.98;;;6.45;;
55762;SDS011;42162;51.958;5.426;2023-08-24T10:19:00;13.43;;;7.25;;
55762;SDS011;42162;51.958;5.426;2023-08-24T10:21:29;12.32;;;6.80;;
55762;SDS011;42162;51.958;5.426;2023-08-24T10:23:57;16.52;;;8.02;;
55762;SDS011;42162;51.958;5.426;2023-08-24T10:26:25;13.32;;;7.90;;
55762;SDS011;42162;51.958;5.426;2023-08-24T10:28:53;17.92;;;7.72;;
55762;SDS011;42162;51.958;5.426;2023-08-24T10:31:21;10.13;;;7.47;;
55762;SDS011;42162;51.958;5.426;2023-08-24T10:33:49;10.80;;;7.38;;
55762;SDS011;42162;51.958;5.426;2023-08-24T10:36:17;11.50;;;8.60;;
55762;SDS011;42162;51.958;5.426;2023-08-24T10:38:45;13.27;;;7.43;;
55762;SDS011;42162;51.958;5.426;2023-08-24T10:41:12;10.65;;;8.27;;
55762;SDS011;42162;51.958;5.426;2023-08-24T10:43:42;9.88;;;7.82;;
55762;SDS011;42162;51.958;5.426;2023-08-24T10:46:15;8.73;;;6.75;;
55762;SDS011;42162;51.958;5.426;2023-08-24T10:51:23;13.70;;;8.55;;
55762;SDS011;42162;51.958;5.426;2023-08-24T10:53:55;19.42;;;8.18;;
55762;SDS011;42162;51.958;5.426;2023-08-24T10:56:36;10.23;;;7.82;;
55762;SDS011;42162;51.958;5.426;2023-08-24T10:59:10;11.00;;;7.10;;
55762;SDS011;42162;51.958;5.426;2023-08-24T11:01:39;15.25;;;8.02;;
55762;SDS011;42162;51.958;5.426;2023-08-24T11:04:07;11.30;;;8.63;;
55762;SDS011;42162;51.958;5.426;2023-08-24T11:06:35;10.63;;;8.32;;
55762;SDS011;42162;51.958;5.426;2023-08-24T11:09:18;19.20;;;8.95;;
55762;SDS011;42162;51.958;5.426;2023-08-24T11:11:59;12.20;;;8.55;;
55762;SDS011;42162;51.958;5.426;2023-08-24T11:14:28;12.38;;;8.32;;
55762;SDS011;42162;51.958;5.426;2023-08-24T11:17:00;17.90;;;9.25;;
55762;SDS011;42162;51.958;5.426;2023-08-24T11:19:51;16.98;;;9.73;;
55762;SDS011;42162;51.958;5.426;2023-08-24T11:22:19;12.38;;;9.70;;
55762;SDS011;42162;51.958;5.426;2023-08-24T11:24:47;15.95;;;8.10;;
55762;SDS011;42162;51.958;5.426;2023-08-24T11:27:14;9.88;;;6.85;;
55762;SDS011;42162;51.958;5.426;2023-08-24T11:29:43;16.80;;;10.07;;
55762;SDS011;42162;51.958;5.426;2023-08-24T11:32:10;13.93;;;10.13;;
55762;SDS011;42162;51.958;5.426;2023-08-24T11:34:37;14.98;;;10.15;;
55762;SDS011;42162;51.958;5.426;2023-08-24T11:37:05;11.38;;;9.40;;
55762;SDS011;42162;51.958;5.426;2023-08-24T11:39:32;11.95;;;9.05;;
55762;SDS011;42162;51.958;5.426;2023-08-24T11:44:27;15.18;;;9.57;;
55762;SDS011;42162;51.958;5.426;2023-08-24T11:46:56;20.27;;;9.48;;
55762;SDS011;42162;51.958;5.426;2023-08-24T11:49:25;12.45;;;9.10;;
55762;SDS011;42162;51.958;5.426;2023-08-24T11:51:52;11.65;;;9.65;;
55762;SDS011;42162;51.958;5.426;2023-08-24T11:54:19;16.15;;;10.23;;
55762;SDS011;42162;51.958;5.426;2023-08-24T11:56:47;16.05;;;10.48;;
55762;SDS011;42162;51.958;5.426;2023-08-24T11:59:15;17.25;;;10.30;;
55762;SDS011;42162;51.958;5.426;2023-08-24T12:01:43;14.80;;;9.90;;
55762;SDS011;42162;51.958;5.426;2023-08-24T12:04:12;14.82;;;10.50;;
55762;SDS011;42162;51.958;5.426;2023-08-24T12:06:39;18.65;;;10.10;;
55762;SDS011;42162;51.958;5.426;2023-08-24T12:09:06;19.60;;;10.48;;
55762;SDS011;42162;51.958;5.426;2023-08-24T12:11:37;16.55;;;9.90;;
55762;SDS011;42162;51.958;5.426;2023-08-24T12:14:06;15.93;;;10.02;;
55762;SDS011;42162;51.958;5.426;2023-08-24T12:16:37;20.85;;;8.05;;
55762;SDS011;42162;51.958;5.426;2023-08-24T12:19:06;12.45;;;9.40;;
55762;SDS011;42162;51.958;5.426;2023-08-24T12:21:34;10.27;;;8.07;;
55762;SDS011;42162;51.958;5.426;2023-08-24T12:24:02;16.67;;;9.90;;
55762;SDS011;42162;51.958;5.426;2023-08-24T12:29:05;17.05;;;8.77;;
55762;SDS011;42162;51.958;5.426;2023-08-24T12:31:35;11.80;;;8.75;;
55762;SDS011;42162;51.958;5.426;2023-08-24T12:34:07;16.10;;;8.65;;
55762;SDS011;42162;51.958;5.426;2023-08-24T12:36:36;11.18;;;8.30;;
55762;SDS011;42162;51.958;5.426;2023-08-24T12:39:04;14.55;;;9.57;;
55762;SDS011;42162;51.958;5.426;2023-08-24T12:41:33;14.32;;;9.68;;
55762;SDS011;42162;51.958;5.426;2023-08-24T12:44:01;16.27;;;9.68;;
55762;SDS011;42162;51.958;5.426;2023-08-24T12:46:32;15.70;;;8.65;;
55762;SDS011;42162;51.958;5.426;2023-08-24T12:49:00;16.40;;;8.45;;
55762;SDS011;42162;51.958;5.426;2023-08-24T12:51:28;14.48;;;10.23;;
55762;SDS011;42162;51.958;5.426;2023-08-24T12:53:55;14.25;;;9.70;;
55762;SDS011;42162;51.958;5.426;2023-08-24T12:56:22;12.43;;;8.20;;
55762;SDS011;42162;51.958;5.426;2023-08-24T12:58:49;17.73;;;11.30;;
55762;SDS011;42162;51.958;5.426;2023-08-24T13:01:16;16.95;;;10.45;;
55762;SDS011;42162;51.958;5.426;2023-08-24T13:03:43;16.65;;;10.13;;
55762;SDS011;42162;51.958;5.426;2023-08-24T13:06:10;15.07;;;9.63;;
55762;SDS011;42162;51.958;5.426;2023-08-24T13:08:53;19.35;;;11.43;;
55762;SDS011;42162;51.958;5.426;2023-08-24T13:11:21;13.45;;;9.70;;
55762;SDS011;42162;51.958;5.426;2023-08-24T13:13:49;17.00;;;11.00;;
55762;SDS011;42162;51.958;5.426;2023-08-24T13:16:16;12.80;;;10.55;;
55762;SDS011;42162;51.958;5.426;2023-08-24T13:18:43;14.20;;;10.45;;
55762;SDS011;42162;51.958;5.426;2023-08-24T13:21:10;16.38;;;11.23;;
55762;SDS011;42162;51.958;5.426;2023-08-24T13:23:37;14.05;;;11.40;;
55762;SDS011;42162;51.958;5.426;2023-08-24T13:26:04;18.25;;;10.55;;
55762;SDS011;42162;51.958;5.426;2023-08-24T13:28:31;15.48;;;11.20;;
55762;SDS011;42162;51.958;5.426;2023-08-24T13:30:58;16.60;;;10.63;;
55762;SDS011;42162;51.958;5.426;2023-08-24T13:33:25;12.13;;;10.52;;
55762;SDS011;42162;51.958;5.426;2023-08-24T13:35:52;16.98;;;11.43;;
55762;SDS011;42162;51.958;5.426;2023-08-24T13:38:19;15.70;;;11.60;;
55762;SDS011;42162;51.958;5.426;2023-08-24T13:40:46;15.02;;;12.95;;
55762;SDS011;42162;51.958;5.426;2023-08-24T13:43:15;13.48;;;11.07;;
55762;SDS011;42162;51.958;5.426;2023-08-24T13:45:42;21.08;;;13.82;;
55762;SDS011;42162;51.958;5.426;2023-08-24T13:48:10;16.60;;;12.85;;
55762;SDS011;42162;51.958;5.426;2023-08-24T13:50:37;10.65;;;9.38;;
55762;SDS011;42162;51.958;5.426;2023-08-24T13:53:04;18.15;;;9.68;;
55762;SDS011;42162;51.958;5.426;2023-08-24T13:55:31;13.30;;;8.65;;
55762;SDS011;42162;51.958;5.426;2023-08-24T13:57:58;11.93;;;8.02;;
55762;SDS011;42162;51.958;5.426;2023-08-24T14:00:25;13.73;;;9.07;;
55762;SDS011;42162;51.958;5.426;2023-08-24T14:02:53;13.50;;;8.82;;
55762;SDS011;42162;51.958;5.426;2023-08-24T14:05:20;16.50;;;9.00;;
55762;SDS011;42162;51.958;5.426;2023-08-24T14:07:48;10.63;;;7.82;;
55762;SDS011;42162;51.958;5.426;2023-08-24T14:10:15;10.73;;;8.45;;
55762;SDS011;42162;51.958;5.426;2023-08-24T14:12:42;20.42;;;9.48;;
55762;SDS011;42162;51.958;5.426;2023-08-24T14:15:09;11.23;;;8.20;;
55762;SDS011;42162;51.958;5.426;2023-08-24T14:17:37;9.48;;;7.60;;
55762;SDS011;42162;51.958;5.426;2023-08-24T14:20:05;12.18;;;7.78;;
55762;SDS011;42162;51.958;5.426;2023-08-24T14:22:33;12.25;;;7.28;;
55762;SDS011;42162;51.958;5.426;2023-08-24T14:24:59;13.73;;;7.45;;
55762;SDS011;42162;51.958;5.426;2023-08-24T14:27:27;12.60;;;6.45;;
55762;SDS011;42162;51.958;5.426;2023-08-24T14:29:54;9.35;;;6.03;;
55762;SDS011;42162;51.958;5.426;2023-08-24T14:32:21;10.32;;;5.82;;
55762;SDS011;42162;51.958;5.426;2023-08-24T14:34:50;11.93;;;6.88;;
55762;SDS011;42162;51.958;5.426;2023-08-24T14:37:17;7.78;;;4.78;;
55762;SDS011;42162;51.958;5.426;2023-08-24T14:39:44;7.10;;;4.50;;
55762;SDS011;42162;51.958;5.426;2023-08-24T14:42:11;6.40;;;4.80;;
55762;SDS011;42162;51.958;5.426;2023-08-24T14:44:38;10.20;;;5.10;;
55762;SDS011;42162;51.958;5.426;2023-08-24T14:47:05;7.50;;;4.75;;
55762;SDS011;42162;51.958;5.426;2023-08-24T14:49:32;9.10;;;5.65;;
55762;SDS011;42162;51.958;5.426;2023-08-24T14:51:59;9.68;;;5.20;;
55762;SDS011;42162;51.958;5.426;2023-08-24T14:54:26;6.47;;;5.03;;
55762;SDS011;42162;51.958;5.426;2023-08-24T14:56:53;10.80;;;5.82;;
55762;SDS011;42162;51.958;5.426;2023-08-24T14:59:21;10.68;;;4.68;;
55762;SDS011;42162;51.958;5.426;2023-08-24T15:01:52;9.38;;;4.30;;